sensor_id;sensor_type;location;lat;lon;timestamp;pressure;altitude;pressure_sealevel;temperature;humidity
59391;BME280;53405;57.012;40.984;2022-09-02T00:01:07;99213.09;;;8.10;78.64
59391;BME280;53405;57.012;40.984;2022-09-02T00:04:14;99223.22;;;7.98;79.27
59391;BME280;53405;57.012;40.984;2022-09-02T00:07:03;99215.69;;;7.80;79.82
59391;BME280;53405;57.012;40.984;2022-09-02T00:09:50;99224.09;;;7.75;80.38
59391;BME280;53405;57.012;40.984;2022-09-02T00:12:38;99221.94;;;7.79;80.83
59391;BME280;53405;57.012;40.984;2022-09-02T00:15:26;99219.50;;;7.77;80.22
59391;BME280;53405;57.012;40.984;2022-09-02T00:18:15;99219.56;;;7.69;80.36
59391;BME280;53405;57.012;40.984;2022-09-02T00:21:03;99218.75;;;7.69;81.18
59391;BME280;53405;57.012;40.984;2022-09-02T00:23:51;99220.97;;;7.95;80.57
59391;BME280;53405;57.012;40.984;2022-09-02T00:26:39;99217.25;;;7.89;79.46
59391;BME280;53405;57.012;40.984;2022-09-02T00:29:27;99214.13;;;7.71;80.09
59391;BME280;53405;57.012;40.984;2022-09-02T00:32:15;99218.94;;;7.67;80.94
59391;BME280;53405;57.012;40.984;2022-09-02T00:35:04;99206.28;;;7.71;80.38
59391;BME280;53405;57.012;40.984;2022-09-02T00:37:52;99211.41;;;7.64;80.42
59391;BME280;53405;57.012;40.984;2022-09-02T00:40:46;99214.28;;;7.54;80.86
59391;BME280;53405;57.012;40.984;2022-09-02T00:43:59;99213.06;;;7.65;81.38
59391;BME280;53405;57.012;40.984;2022-09-02T00:46:47;99214.44;;;7.76;80.76
59391;BME280;53405;57.012;40.984;2022-09-02T00:49:38;99216.03;;;7.77;80.18
59391;BME280;53405;57.012;40.984;2022-09-02T00:52:33;99188.72;;;7.56;80.82
59391;BME280;53405;57.012;40.984;2022-09-02T00:55:25;99214.50;;;7.68;80.22
59391;BME280;53405;57.012;40.984;2022-09-02T00:58:18;99210.19;;;7.75;80.64
59391;BME280;53405;57.012;40.984;2022-09-02T01:01:09;99207.28;;;7.70;79.81
59391;BME280;53405;57.012;40.984;2022-09-02T01:04:00;99193.44;;;7.61;79.88
59391;BME280;53405;57.012;40.984;2022-09-02T01:06:47;99204.91;;;7.60;79.69
59391;BME280;53405;57.012;40.984;2022-09-02T01:09:35;99205.91;;;7.59;79.84
59391;BME280;53405;57.012;40.984;2022-09-02T01:12:24;99201.28;;;7.46;80.00
59391;BME280;53405;57.012;40.984;2022-09-02T01:15:14;99188.97;;;7.47;80.19
59391;BME280;53405;57.012;40.984;2022-09-02T01:18:05;99199.03;;;7.58;79.31
59391;BME280;53405;57.012;40.984;2022-09-02T01:20:58;99192.94;;;7.42;79.21
59391;BME280;53405;57.012;40.984;2022-09-02T01:23:47;99206.03;;;7.42;79.67
59391;BME280;53405;57.012;40.984;2022-09-02T01:26:35;99200.63;;;7.44;80.26
59391;BME280;53405;57.012;40.984;2022-09-02T01:29:23;99206.09;;;7.34;79.68
59391;BME280;53405;57.012;40.984;2022-09-02T01:32:11;99202.09;;;7.23;80.30
59391;BME280;53405;57.012;40.984;2022-09-02T01:34:59;99187.47;;;7.06;80.68
59391;BME280;53405;57.012;40.984;2022-09-02T01:37:54;99199.94;;;7.27;80.40
59391;BME280;53405;57.012;40.984;2022-09-02T01:40:42;99201.56;;;7.28;81.12
59391;BME280;53405;57.012;40.984;2022-09-02T01:43:32;99198.50;;;7.24;80.48
59391;BME280;53405;57.012;40.984;2022-09-02T01:46:19;99202.81;;;7.17;80.61
59391;BME280;53405;57.012;40.984;2022-09-02T01:49:07;99207.22;;;7.17;81.10
59391;BME280;53405;57.012;40.984;2022-09-02T01:51:56;99207.09;;;7.10;80.96
59391;BME280;53405;57.012;40.984;2022-09-02T01:54:44;99206.25;;;7.18;80.94
59391;BME280;53405;57.012;40.984;2022-09-02T01:57:32;99194.44;;;6.99;81.17
59391;BME280;53405;57.012;40.984;2022-09-02T02:00:20;99212.50;;;7.09;81.69
59391;BME280;53405;57.012;40.984;2022-09-02T02:03:08;99205.34;;;7.02;81.90
59391;BME280;53405;57.012;40.984;2022-09-02T02:05:56;99206.22;;;6.95;82.27
59391;BME280;53405;57.012;40.984;2022-09-02T02:08:44;99203.44;;;6.96;82.66
59391;BME280;53405;57.012;40.984;2022-09-02T02:11:31;99205.34;;;7.02;82.70
59391;BME280;53405;57.012;40.984;2022-09-02T02:14:19;99208.44;;;7.06;83.17
59391;BME280;53405;57.012;40.984;2022-09-02T02:17:08;99213.31;;;7.09;82.79
59391;BME280;53405;57.012;40.984;2022-09-02T02:19:58;99213.09;;;7.19;82.81
59391;BME280;53405;57.012;40.984;2022-09-02T02:22:47;99218.81;;;7.22;82.63
59391;BME280;53405;57.012;40.984;2022-09-02T02:25:35;99212.00;;;7.36;82.62
59391;BME280;53405;57.012;40.984;2022-09-02T02:28:24;99206.03;;;7.42;82.55
59391;BME280;53405;57.012;40.984;2022-09-02T02:31:12;99206.41;;;7.39;82.22
59391;BME280;53405;57.012;40.984;2022-09-02T02:34:00;99209.38;;;7.36;82.80
59391;BME280;53405;57.012;40.984;2022-09-02T02:36:48;99208.84;;;7.41;83.21
59391;BME280;53405;57.012;40.984;2022-09-02T02:40:02;99209.31;;;7.59;82.47
59391;BME280;53405;57.012;40.984;2022-09-02T02:42:51;99214.28;;;7.54;82.75
59391;BME280;53405;57.012;40.984;2022-09-02T02:45:43;99213.94;;;7.57;83.08
59391;BME280;53405;57.012;40.984;2022-09-02T02:48:32;99211.31;;;7.57;82.89
59391;BME280;53405;57.012;40.984;2022-09-02T02:51:20;99212.47;;;7.55;83.03
59391;BME280;53405;57.012;40.984;2022-09-02T02:54:09;99214.75;;;7.58;83.21
59391;BME280;53405;57.012;40.984;2022-09-02T02:56:57;99212.25;;;7.65;83.51
59391;BME280;53405;57.012;40.984;2022-09-02T02:59:45;99214.66;;;7.66;82.59
59391;BME280;53405;57.012;40.984;2022-09-02T03:02:32;99208.53;;;7.74;82.93
59391;BME280;53405;57.012;40.984;2022-09-02T03:05:21;99211.28;;;7.81;82.20
59391;BME280;53405;57.012;40.984;2022-09-02T03:08:09;99210.44;;;7.65;83.42
59391;BME280;53405;57.012;40.984;2022-09-02T03:10:57;99208.53;;;7.59;83.38
59391;BME280;53405;57.012;40.984;2022-09-02T03:13:49;99212.78;;;7.60;83.08
59391;BME280;53405;57.012;40.984;2022-09-02T03:16:38;99206.44;;;7.69;82.71
59391;BME280;53405;57.012;40.984;2022-09-02T03:19:26;99209.91;;;7.70;82.51
59391;BME280;53405;57.012;40.984;2022-09-02T03:22:14;99209.47;;;7.81;80.64
59391;BME280;53405;57.012;40.984;2022-09-02T03:25:02;99199.88;;;7.73;79.82
59391;BME280;53405;57.012;40.984;2022-09-02T03:27:50;99217.25;;;7.89;78.41
59391;BME280;53405;57.012;40.984;2022-09-02T03:30:39;99221.84;;;7.87;79.00
59391;BME280;53405;57.012;40.984;2022-09-02T03:33:28;99205.94;;;7.89;77.92
59391;BME280;53405;57.012;40.984;2022-09-02T03:36:28;99217.91;;;8.06;76.99
59391;BME280;53405;57.012;40.984;2022-09-02T03:39:17;99216.25;;;8.05;76.81
59391;BME280;53405;57.012;40.984;2022-09-02T03:42:07;99219.16;;;8.25;76.02
59391;BME280;53405;57.012;40.984;2022-09-02T03:44:55;99219.97;;;8.26;76.04
59391;BME280;53405;57.012;40.984;2022-09-02T03:47:44;99215.91;;;8.23;76.06
59391;BME280;53405;57.012;40.984;2022-09-02T03:50:42;99214.81;;;8.18;76.57
59391;BME280;53405;57.012;40.984;2022-09-02T03:53:35;99210.56;;;8.17;76.32
59391;BME280;53405;57.012;40.984;2022-09-02T03:56:23;99212.75;;;8.28;76.20
59391;BME280;53405;57.012;40.984;2022-09-02T03:59:11;99219.06;;;8.33;76.47
59391;BME280;53405;57.012;40.984;2022-09-02T04:02:00;99214.53;;;8.42;76.44
59391;BME280;53405;57.012;40.984;2022-09-02T04:04:49;99221.34;;;8.52;76.53
59391;BME280;53405;57.012;40.984;2022-09-02T04:07:38;99216.13;;;8.73;75.43
59391;BME280;53405;57.012;40.984;2022-09-02T04:10:27;99224.31;;;8.63;75.13
59391;BME280;53405;57.012;40.984;2022-09-02T04:13:15;99222.97;;;8.38;75.81
59391;BME280;53405;57.012;40.984;2022-09-02T04:16:12;99219.41;;;8.30;75.83
59391;BME280;53405;57.012;40.984;2022-09-02T04:19:01;99224.56;;;8.39;76.54
59391;BME280;53405;57.012;40.984;2022-09-02T04:21:49;99212.03;;;8.34;75.71
59391;BME280;53405;57.012;40.984;2022-09-02T04:24:37;99218.97;;;8.57;75.47
59391;BME280;53405;57.012;40.984;2022-09-02T04:27:25;99211.22;;;8.48;74.84
59391;BME280;53405;57.012;40.984;2022-09-02T04:30:14;99230.75;;;8.46;74.95
59391;BME280;53405;57.012;40.984;2022-09-02T04:33:05;99230.56;;;8.47;75.89
59391;BME280;53405;57.012;40.984;2022-09-02T04:35:53;99233.38;;;8.61;74.67
59391;BME280;53405;57.012;40.984;2022-09-02T04:38:41;99232.47;;;8.54;74.43
59391;BME280;53405;57.012;40.984;2022-09-02T04:41:30;99233.47;;;8.53;75.22
59391;BME280;53405;57.012;40.984;2022-09-02T04:44:21;99236.00;;;8.61;73.33
59391;BME280;53405;57.012;40.984;2022-09-02T04:47:09;99232.84;;;8.50;74.26
59391;BME280;53405;57.012;40.984;2022-09-02T04:49:58;99219.25;;;8.62;74.03
59391;BME280;53405;57.012;40.984;2022-09-02T04:52:46;99241.59;;;8.73;73.13
59391;BME280;53405;57.012;40.984;2022-09-02T04:55:38;99249.72;;;8.78;73.43
59391;BME280;53405;57.012;40.984;2022-09-02T04:58:29;99250.44;;;8.72;72.19
59391;BME280;53405;57.012;40.984;2022-09-02T05:01:21;99237.56;;;8.92;72.44
59391;BME280;53405;57.012;40.984;2022-09-02T05:04:09;99249.09;;;8.76;73.63
59391;BME280;53405;57.012;40.984;2022-09-02T05:07:02;99255.69;;;8.72;75.11
59391;BME280;53405;57.012;40.984;2022-09-02T05:09:57;99253.25;;;8.70;78.20
59391;BME280;53405;57.012;40.984;2022-09-02T05:12:49;99256.34;;;8.74;76.90
59391;BME280;53405;57.012;40.984;2022-09-02T05:15:39;99236.88;;;8.38;77.92
59391;BME280;53405;57.012;40.984;2022-09-02T05:18:28;99266.56;;;8.24;78.92
59391;BME280;53405;57.012;40.984;2022-09-02T05:21:17;99260.69;;;8.22;78.69
59391;BME280;53405;57.012;40.984;2022-09-02T05:24:07;99275.94;;;8.18;79.00
59391;BME280;53405;57.012;40.984;2022-09-02T05:26:56;99271.25;;;8.28;78.27
59391;BME280;53405;57.012;40.984;2022-09-02T05:29:45;99275.19;;;8.47;76.45
59391;BME280;53405;57.012;40.984;2022-09-02T05:32:36;99277.78;;;8.77;74.69
59391;BME280;53405;57.012;40.984;2022-09-02T05:35:24;99267.78;;;8.88;75.85
59391;BME280;53405;57.012;40.984;2022-09-02T05:38:12;99274.72;;;8.74;74.84
59391;BME280;53405;57.012;40.984;2022-09-02T05:41:09;99275.88;;;8.71;75.83
59391;BME280;53405;57.012;40.984;2022-09-02T05:43:59;99269.91;;;8.77;73.86
59391;BME280;53405;57.012;40.984;2022-09-02T05:46:48;99265.31;;;8.64;73.00
59391;BME280;53405;57.012;40.984;2022-09-02T05:49:37;99278.78;;;8.76;72.38
59391;BME280;53405;57.012;40.984;2022-09-02T05:52:31;99274.53;;;8.75;72.37
59391;BME280;53405;57.012;40.984;2022-09-02T05:55:19;99281.91;;;9.01;72.00
59391;BME280;53405;57.012;40.984;2022-09-02T05:58:08;99281.91;;;9.01;70.39
59391;BME280;53405;57.012;40.984;2022-09-02T06:00:56;99278.75;;;8.91;71.10
59391;BME280;53405;57.012;40.984;2022-09-02T06:03:45;99286.34;;;8.86;70.91
59391;BME280;53405;57.012;40.984;2022-09-02T06:06:33;99290.63;;;8.87;70.75
59391;BME280;53405;57.012;40.984;2022-09-02T06:09:23;99283.94;;;8.84;70.37
59391;BME280;53405;57.012;40.984;2022-09-02T06:12:15;99295.44;;;9.20;70.43
59391;BME280;53405;57.012;40.984;2022-09-02T06:15:04;99295.25;;;9.21;70.01
59391;BME280;53405;57.012;40.984;2022-09-02T06:17:54;99308.81;;;9.03;71.79
59391;BME280;53405;57.012;40.984;2022-09-02T06:20:47;99301.28;;;9.00;72.47
59391;BME280;53405;57.012;40.984;2022-09-02T06:23:37;99308.19;;;8.86;72.89
59391;BME280;53405;57.012;40.984;2022-09-02T06:26:28;99298.31;;;8.89;72.39
59391;BME280;53405;57.012;40.984;2022-09-02T06:29:17;99311.38;;;9.18;70.21
59391;BME280;53405;57.012;40.984;2022-09-02T06:32:06;99285.66;;;9.14;70.62
59391;BME280;53405;57.012;40.984;2022-09-02T06:34:54;99286.16;;;9.02;68.59
59391;BME280;53405;57.012;40.984;2022-09-02T06:37:44;99331.13;;;9.14;69.76
59391;BME280;53405;57.012;40.984;2022-09-02T06:40:32;99327.63;;;9.07;70.69
59391;BME280;53405;57.012;40.984;2022-09-02T06:43:20;99306.41;;;8.72;72.58
59391;BME280;53405;57.012;40.984;2022-09-02T06:46:28;99323.88;;;8.80;73.86
59391;BME280;53405;57.012;40.984;2022-09-02T06:49:19;99333.69;;;9.08;75.02
59391;BME280;53405;57.012;40.984;2022-09-02T06:52:08;99317.16;;;9.29;71.50
59391;BME280;53405;57.012;40.984;2022-09-02T06:54:56;99333.25;;;9.40;71.99
59391;BME280;53405;57.012;40.984;2022-09-02T06:57:45;99335.50;;;9.44;70.15
59391;BME280;53405;57.012;40.984;2022-09-02T07:00:34;99338.91;;;9.59;69.62
59391;BME280;53405;57.012;40.984;2022-09-02T07:03:23;99337.69;;;9.62;71.31
59391;BME280;53405;57.012;40.984;2022-09-02T07:06:33;99350.97;;;9.97;67.30
59391;BME280;53405;57.012;40.984;2022-09-02T07:09:25;99338.22;;;9.93;66.29
59391;BME280;53405;57.012;40.984;2022-09-02T07:12:22;99340.22;;;10.20;65.45
59391;BME280;53405;57.012;40.984;2022-09-02T07:15:18;99350.91;;;9.90;65.62
59391;BME280;53405;57.012;40.984;2022-09-02T07:18:06;99336.84;;;9.54;66.49
59391;BME280;53405;57.012;40.984;2022-09-02T07:20:55;99356.00;;;9.70;69.05
59391;BME280;53405;57.012;40.984;2022-09-02T07:23:43;99359.19;;;10.15;66.42
59391;BME280;53405;57.012;40.984;2022-09-02T07:26:32;99358.22;;;10.38;64.23
59391;BME280;53405;57.012;40.984;2022-09-02T07:29:22;99359.63;;;10.40;65.24
59391;BME280;53405;57.012;40.984;2022-09-02T07:32:10;99365.06;;;10.39;64.95
59391;BME280;53405;57.012;40.984;2022-09-02T07:34:58;99366.47;;;10.13;66.42
59391;BME280;53405;57.012;40.984;2022-09-02T07:37:45;99379.94;;;10.25;67.48
59391;BME280;53405;57.012;40.984;2022-09-02T07:40:34;99376.63;;;10.16;67.66
59391;BME280;53405;57.012;40.984;2022-09-02T07:43:22;99385.38;;;9.95;70.54
59391;BME280;53405;57.012;40.984;2022-09-02T07:46:10;99369.00;;;10.00;69.94
59391;BME280;53405;57.012;40.984;2022-09-02T07:48:59;99379.34;;;10.01;68.34
59391;BME280;53405;57.012;40.984;2022-09-02T07:51:50;99384.06;;;10.34;67.12
59391;BME280;53405;57.012;40.984;2022-09-02T07:54:42;99382.16;;;10.49;66.67
59391;BME280;53405;57.012;40.984;2022-09-02T07:57:35;99380.63;;;10.34;67.95
59391;BME280;53405;57.012;40.984;2022-09-02T08:00:29;99360.56;;;10.04;65.56
59391;BME280;53405;57.012;40.984;2022-09-02T08:03:24;99355.34;;;9.89;66.14
59391;BME280;53405;57.012;40.984;2022-09-02T08:06:15;99376.34;;;10.04;68.69
59391;BME280;53405;57.012;40.984;2022-09-02T08:09:38;99404.25;;;10.48;64.58
59391;BME280;53405;57.012;40.984;2022-09-02T08:12:39;99409.59;;;9.90;64.97
59391;BME280;53405;57.012;40.984;2022-09-02T08:15:28;99421.72;;;9.70;66.66
59391;BME280;53405;57.012;40.984;2022-09-02T08:18:20;99417.13;;;9.57;68.14
59391;BME280;53405;57.012;40.984;2022-09-02T08:21:08;99410.69;;;9.59;69.12
59391;BME280;53405;57.012;40.984;2022-09-02T08:23:56;99419.19;;;9.62;69.55
59391;BME280;53405;57.012;40.984;2022-09-02T08:26:45;99410.97;;;9.86;69.37
59391;BME280;53405;57.012;40.984;2022-09-02T08:29:33;99416.91;;;10.38;65.67
59391;BME280;53405;57.012;40.984;2022-09-02T08:32:21;99426.91;;;10.49;64.76
59391;BME280;53405;57.012;40.984;2022-09-02T08:35:09;99415.28;;;10.65;62.97
59391;BME280;53405;57.012;40.984;2022-09-02T08:37:58;99425.59;;;10.60;63.11
59391;BME280;53405;57.012;40.984;2022-09-02T08:40:46;99427.03;;;10.63;61.27
59391;BME280;53405;57.012;40.984;2022-09-02T08:43:42;99423.47;;;10.27;62.36
59391;BME280;53405;57.012;40.984;2022-09-02T08:46:31;99424.25;;;10.43;64.25
59391;BME280;53405;57.012;40.984;2022-09-02T08:49:25;99445.00;;;10.59;62.93
59391;BME280;53405;57.012;40.984;2022-09-02T08:52:38;99445.84;;;10.17;64.70
59391;BME280;53405;57.012;40.984;2022-09-02T08:55:34;99444.94;;;10.03;65.42
59391;BME280;53405;57.012;40.984;2022-09-02T08:58:28;99456.19;;;9.97;64.92
59391;BME280;53405;57.012;40.984;2022-09-02T09:01:23;99452.66;;;9.89;65.48
59391;BME280;53405;57.012;40.984;2022-09-02T09:17:00;99478.75;;;10.71;64.69
59391;BME280;53405;57.012;40.984;2022-09-02T09:19:53;99473.59;;;10.91;63.65
59391;BME280;53405;57.012;40.984;2022-09-02T09:22:42;99482.78;;;11.01;61.37
59391;BME280;53405;57.012;40.984;2022-09-02T09:25:30;99493.78;;;10.77;61.65
59391;BME280;53405;57.012;40.984;2022-09-02T09:28:18;99504.78;;;10.87;61.70
59391;BME280;53405;57.012;40.984;2022-09-02T09:31:11;99495.00;;;10.81;60.50
59391;BME280;53405;57.012;40.984;2022-09-02T09:34:06;99511.34;;;10.70;61.79
59391;BME280;53405;57.012;40.984;2022-09-02T09:36:54;99516.22;;;10.73;61.54
59391;BME280;53405;57.012;40.984;2022-09-02T09:39:42;99519.63;;;10.95;61.89
59391;BME280;53405;57.012;40.984;2022-09-02T09:42:35;99506.03;;;11.19;61.33
59391;BME280;53405;57.012;40.984;2022-09-02T09:45:38;99508.94;;;11.38;60.65
59391;BME280;53405;57.012;40.984;2022-09-02T09:48:26;99525.78;;;11.37;59.80
59391;BME280;53405;57.012;40.984;2022-09-02T09:51:19;99520.84;;;11.27;60.20
59391;BME280;53405;57.012;40.984;2022-09-02T09:54:14;99530.72;;;11.53;60.06
59391;BME280;53405;57.012;40.984;2022-09-02T09:57:19;99535.84;;;11.27;59.06
59391;BME280;53405;57.012;40.984;2022-09-02T10:03:00;99534.81;;;11.21;60.16
59391;BME280;53405;57.012;40.984;2022-09-02T10:05:57;99543.97;;;11.25;60.83
59391;BME280;53405;57.012;40.984;2022-09-02T10:08:53;99544.09;;;11.17;63.13
59391;BME280;53405;57.012;40.984;2022-09-02T10:14:52;99549.59;;;10.94;61.66
59391;BME280;53405;57.012;40.984;2022-09-02T10:17:50;99563.75;;;11.14;61.19
59391;BME280;53405;57.012;40.984;2022-09-02T10:21:02;99561.31;;;11.13;59.65
59391;BME280;53405;57.012;40.984;2022-09-02T10:27:59;99581.63;;;11.19;59.32
59391;BME280;53405;57.012;40.984;2022-09-02T10:31:27;99576.66;;;11.02;61.29
59391;BME280;53405;57.012;40.984;2022-09-02T10:34:31;99587.19;;;11.02;61.12
59391;BME280;53405;57.012;40.984;2022-09-02T10:37:26;99591.50;;;11.10;59.55
59391;BME280;53405;57.012;40.984;2022-09-02T10:40:23;99589.16;;;11.22;59.55
59391;BME280;53405;57.012;40.984;2022-09-02T10:43:25;99593.50;;;11.36;60.31
59391;BME280;53405;57.012;40.984;2022-09-02T10:46:21;99593.31;;;11.38;61.87
59391;BME280;53405;57.012;40.984;2022-09-02T11:01:18;99613.22;;;11.41;59.12
59391;BME280;53405;57.012;40.984;2022-09-02T11:04:21;99615.31;;;11.52;59.29
59391;BME280;53405;57.012;40.984;2022-09-02T11:07:15;99629.97;;;11.61;57.38
59391;BME280;53405;57.012;40.984;2022-09-02T11:10:09;99629.94;;;11.54;58.21
59391;BME280;53405;57.012;40.984;2022-09-02T11:13:19;99617.47;;;11.42;57.64
59391;BME280;53405;57.012;40.984;2022-09-02T11:19:19;99637.16;;;11.46;58.68
59391;BME280;53405;57.012;40.984;2022-09-02T11:22:28;99645.94;;;11.53;58.82
59391;BME280;53405;57.012;40.984;2022-09-02T11:32:06;99642.72;;;11.86;56.81
59391;BME280;53405;57.012;40.984;2022-09-02T11:34:58;99636.75;;;11.77;56.99
59391;BME280;53405;57.012;40.984;2022-09-02T11:50:41;99634.63;;;12.36;56.57
59391;BME280;53405;57.012;40.984;2022-09-02T11:56:44;99659.16;;;12.29;55.46
59391;BME280;53405;57.012;40.984;2022-09-02T12:02:44;99651.00;;;12.79;56.02
59391;BME280;53405;57.012;40.984;2022-09-02T12:11:38;99636.97;;;12.86;53.53
59391;BME280;53405;57.012;40.984;2022-09-02T12:17:39;99657.25;;;12.58;56.04
59391;BME280;53405;57.012;40.984;2022-09-02T12:33:00;99685.94;;;12.20;57.52
59391;BME280;53405;57.012;40.984;2022-09-02T12:38:33;99684.66;;;11.81;57.65
59391;BME280;53405;57.012;40.984;2022-09-02T12:41:27;99690.72;;;12.03;57.19
59391;BME280;53405;57.012;40.984;2022-09-02T12:44:35;99695.03;;;12.10;57.19
59391;BME280;53405;57.012;40.984;2022-09-02T12:47:39;99689.50;;;12.47;55.77
59391;BME280;53405;57.012;40.984;2022-09-02T12:53:42;99692.63;;;12.71;54.86
59391;BME280;53405;57.012;40.984;2022-09-02T12:56:33;99688.69;;;12.46;53.63
59391;BME280;53405;57.012;40.984;2022-09-02T12:59:38;99696.63;;;12.53;54.21
59391;BME280;53405;57.012;40.984;2022-09-02T13:09:45;99714.81;;;12.28;56.10
59391;BME280;53405;57.012;40.984;2022-09-02T13:26:01;99735.78;;;12.36;55.54
59391;BME280;53405;57.012;40.984;2022-09-02T13:32:00;99750.38;;;11.97;56.51
59391;BME280;53405;57.012;40.984;2022-09-02T13:34:52;99754.00;;;11.96;57.27
59391;BME280;53405;57.012;40.984;2022-09-02T13:37:43;99746.53;;;12.00;57.21
59391;BME280;53405;57.012;40.984;2022-09-02T13:40:32;99759.97;;;12.05;56.91
59391;BME280;53405;57.012;40.984;2022-09-02T13:43:22;99762.97;;;11.95;57.54
59391;BME280;53405;57.012;40.984;2022-09-02T13:46:12;99769.03;;;11.96;59.44
59391;BME280;53405;57.012;40.984;2022-09-02T13:49:00;99752.19;;;11.68;63.61
59391;BME280;53405;57.012;40.984;2022-09-02T13:51:48;99756.22;;;11.71;63.25
59391;BME280;53405;57.012;40.984;2022-09-02T13:54:43;99772.78;;;11.86;63.15
59391;BME280;53405;57.012;40.984;2022-09-02T13:57:32;99772.50;;;11.74;60.09
59391;BME280;53405;57.012;40.984;2022-09-02T14:00:37;99758.31;;;11.75;59.37
59391;BME280;53405;57.012;40.984;2022-09-02T14:03:25;99749.41;;;11.55;58.47
59391;BME280;53405;57.012;40.984;2022-09-02T14:06:14;99769.13;;;11.59;59.23
59391;BME280;53405;57.012;40.984;2022-09-02T14:09:10;99788.97;;;11.55;61.14
59391;BME280;53405;57.012;40.984;2022-09-02T14:12:05;99796.31;;;11.81;60.54
59391;BME280;53405;57.012;40.984;2022-09-02T14:14:54;99791.84;;;11.82;59.28
59391;BME280;53405;57.012;40.984;2022-09-02T14:17:42;99779.59;;;11.74;60.50
59391;BME280;53405;57.012;40.984;2022-09-02T14:20:29;99780.13;;;11.63;62.68
59391;BME280;53405;57.012;40.984;2022-09-02T14:23:17;99790.34;;;11.72;63.28
59391;BME280;53405;57.012;40.984;2022-09-02T14:26:05;99786.06;;;11.93;60.00
59391;BME280;53405;57.012;40.984;2022-09-02T14:28:53;99781.09;;;12.05;60.31
59391;BME280;53405;57.012;40.984;2022-09-02T14:31:42;99784.34;;;12.07;59.30
59391;BME280;53405;57.012;40.984;2022-09-02T14:34:38;99784.88;;;11.96;58.94
59391;BME280;53405;57.012;40.984;2022-09-02T14:37:27;99783.28;;;12.01;57.34
59391;BME280;53405;57.012;40.984;2022-09-02T14:40:15;99800.78;;;12.09;57.62
59391;BME280;53405;57.012;40.984;2022-09-02T14:43:10;99802.91;;;11.92;58.44
59391;BME280;53405;57.012;40.984;2022-09-02T14:46:05;99799.56;;;12.05;57.71
59391;BME280;53405;57.012;40.984;2022-09-02T14:49:02;99803.00;;;12.05;58.54
59391;BME280;53405;57.012;40.984;2022-09-02T14:51:55;99800.59;;;12.10;57.87
59391;BME280;53405;57.012;40.984;2022-09-02T14:54:46;99799.94;;;12.02;58.02
59391;BME280;53405;57.012;40.984;2022-09-02T14:57:35;99813.72;;;11.97;58.63
59391;BME280;53405;57.012;40.984;2022-09-02T15:00:25;99811.00;;;11.90;57.93
59391;BME280;53405;57.012;40.984;2022-09-02T15:03:14;99799.13;;;11.80;58.99
59391;BME280;53405;57.012;40.984;2022-09-02T15:06:02;99818.03;;;11.83;58.58
59391;BME280;53405;57.012;40.984;2022-09-02T15:08:50;99818.34;;;11.73;59.15
59391;BME280;53405;57.012;40.984;2022-09-02T15:11:38;99823.06;;;11.78;59.93
59391;BME280;53405;57.012;40.984;2022-09-02T15:14:26;99815.41;;;11.62;61.32
59391;BME280;53405;57.012;40.984;2022-09-02T15:17:15;99812.66;;;11.48;61.15
59391;BME280;53405;57.012;40.984;2022-09-02T15:20:02;99818.06;;;11.25;62.63
59391;BME280;53405;57.012;40.984;2022-09-02T15:22:52;99824.28;;;11.17;63.24
59391;BME280;53405;57.012;40.984;2022-09-02T15:25:40;99818.88;;;11.04;63.81
59391;BME280;53405;57.012;40.984;2022-09-02T15:28:28;99822.13;;;11.06;63.90
59391;BME280;53405;57.012;40.984;2022-09-02T15:31:16;99842.84;;;11.09;64.40
59391;BME280;53405;57.012;40.984;2022-09-02T15:34:04;99839.44;;;10.79;65.27
59391;BME280;53405;57.012;40.984;2022-09-02T15:36:51;99835.44;;;10.68;66.30
59391;BME280;53405;57.012;40.984;2022-09-02T15:39:41;99841.06;;;10.65;66.29
59391;BME280;53405;57.012;40.984;2022-09-02T15:42:28;99843.81;;;10.57;68.23
59391;BME280;53405;57.012;40.984;2022-09-02T15:45:16;99846.97;;;10.82;66.90
59391;BME280;53405;57.012;40.984;2022-09-02T15:48:04;99831.53;;;10.64;67.74
59391;BME280;53405;57.012;40.984;2022-09-02T15:50:53;99848.88;;;10.58;67.59
59391;BME280;53405;57.012;40.984;2022-09-02T15:53:41;99845.78;;;10.40;68.51
59391;BME280;53405;57.012;40.984;2022-09-02T15:56:31;99859.88;;;10.47;67.47
59391;BME280;53405;57.012;40.984;2022-09-02T15:59:19;99845.75;;;10.25;68.39
59391;BME280;53405;57.012;40.984;2022-09-02T16:02:08;99859.97;;;10.30;68.23
59391;BME280;53405;57.012;40.984;2022-09-02T16:04:56;99858.16;;;10.16;68.75
59391;BME280;53405;57.012;40.984;2022-09-02T16:07:44;99867.50;;;10.19;69.36
59391;BME280;53405;57.012;40.984;2022-09-02T16:10:36;99868.75;;;10.08;70.27
59391;BME280;53405;57.012;40.984;2022-09-02T16:13:28;99869.28;;;10.03;71.22
59391;BME280;53405;57.012;40.984;2022-09-02T16:16:16;99871.84;;;9.88;71.34
59391;BME280;53405;57.012;40.984;2022-09-02T16:19:05;99870.75;;;9.83;72.87
59391;BME280;53405;57.012;40.984;2022-09-02T16:21:53;99856.47;;;9.77;72.62
59391;BME280;53405;57.012;40.984;2022-09-02T16:24:41;99877.44;;;9.85;72.64
59391;BME280;53405;57.012;40.984;2022-09-02T16:27:29;99885.59;;;9.75;73.29
59391;BME280;53405;57.012;40.984;2022-09-02T16:30:35;99867.00;;;9.54;74.61
59391;BME280;53405;57.012;40.984;2022-09-02T16:33:25;99891.50;;;9.77;73.82
59391;BME280;53405;57.012;40.984;2022-09-02T16:36:12;99887.03;;;9.55;74.00
59391;BME280;53405;57.012;40.984;2022-09-02T16:39:01;99887.53;;;9.50;74.44
59391;BME280;53405;57.012;40.984;2022-09-02T16:41:50;99891.34;;;9.48;74.57
59391;BME280;53405;57.012;40.984;2022-09-02T16:44:40;99901.25;;;9.37;74.73
59391;BME280;53405;57.012;40.984;2022-09-02T16:47:27;99892.31;;;9.15;75.31
59391;BME280;53405;57.012;40.984;2022-09-02T16:50:15;99904.16;;;9.19;75.46
59391;BME280;53405;57.012;40.984;2022-09-02T16:53:03;99916.94;;;9.14;75.68
59391;BME280;53405;57.012;40.984;2022-09-02T16:55:51;99914.78;;;9.26;75.65